sensor_id;sensor_type;location;lat;lon;timestamp;P1;durP1;ratioP1;P2;durP2;ratioP2
15812;SDS011;8007;51.404;6.304;2022-09-09T00:01:51;1.00;;;0.90;;
15812;SDS011;8007;51.404;6.304;2022-09-09T00:03:59;2.47;;;1.03;;
15812;SDS011;8007;51.404;6.304;2022-09-09T00:06:07;3.07;;;1.83;;
15812;SDS011;8007;51.404;6.304;2022-09-09T00:08:15;1.67;;;1.03;;
15812;SDS011;8007;51.404;6.304;2022-09-09T00:10:21;2.57;;;0.97;;
15812;SDS011;8007;51.404;6.304;2022-09-09T00:12:30;2.83;;;0.90;;
15812;SDS011;8007;51.404;6.304;2022-09-09T00:14:37;1.87;;;1.17;;
15812;SDS011;8007;51.404;6.304;2022-09-09T00:16:45;2.60;;;1.50;;
15812;SDS011;8007;51.404;6.304;2022-09-09T00:18:52;2.80;;;1.83;;
15812;SDS011;8007;51.404;6.304;2022-09-09T00:21:00;3.13;;;1.60;;
15812;SDS011;8007;51.404;6.304;2022-09-09T00:23:11;2.27;;;2.03;;
15812;SDS011;8007;51.404;6.304;2022-09-09T00:25:19;1.90;;;1.70;;
15812;SDS011;8007;51.404;6.304;2022-09-09T00:27:25;2.20;;;2.00;;
15812;SDS011;8007;51.404;6.304;2022-09-09T00:29:32;2.80;;;2.33;;
15812;SDS011;8007;51.404;6.304;2022-09-09T00:31:37;2.80;;;2.60;;
15812;SDS011;8007;51.404;6.304;2022-09-09T00:33:40;3.00;;;2.60;;
15812;SDS011;8007;51.404;6.304;2022-09-09T00:35:44;2.70;;;2.50;;
15812;SDS011;8007;51.404;6.304;2022-09-09T00:37:50;3.20;;;2.43;;
15812;SDS011;8007;51.404;6.304;2022-09-09T00:39:55;4.30;;;2.97;;
15812;SDS011;8007;51.404;6.304;2022-09-09T00:42:05;3.33;;;3.03;;
15812;SDS011;8007;51.404;6.304;2022-09-09T00:44:17;3.33;;;2.97;;
15812;SDS011;8007;51.404;6.304;2022-09-09T00:46:33;5.30;;;3.30;;
15812;SDS011;8007;51.404;6.304;2022-09-09T00:48:49;3.03;;;2.70;;
15812;SDS011;8007;51.404;6.304;2022-09-09T00:50:56;3.80;;;3.40;;
15812;SDS011;8007;51.404;6.304;2022-09-09T00:53:07;4.30;;;3.30;;
15812;SDS011;8007;51.404;6.304;2022-09-09T00:55:16;3.63;;;3.30;;
15812;SDS011;8007;51.404;6.304;2022-09-09T00:57:27;4.60;;;3.40;;
15812;SDS011;8007;51.404;6.304;2022-09-09T00:59:32;3.93;;;3.53;;
15812;SDS011;8007;51.404;6.304;2022-09-09T01:01:40;4.30;;;3.10;;
15812;SDS011;8007;51.404;6.304;2022-09-09T01:03:43;3.67;;;3.30;;
15812;SDS011;8007;51.404;6.304;2022-09-09T01:05:49;3.80;;;3.50;;
15812;SDS011;8007;51.404;6.304;2022-09-09T01:07:56;3.80;;;3.37;;
15812;SDS011;8007;51.404;6.304;2022-09-09T01:10:00;4.13;;;3.60;;
15812;SDS011;8007;51.404;6.304;2022-09-09T01:12:07;4.50;;;3.40;;
15812;SDS011;8007;51.404;6.304;2022-09-09T01:14:16;3.70;;;3.40;;
15812;SDS011;8007;51.404;6.304;2022-09-09T01:16:26;3.43;;;3.13;;
15812;SDS011;8007;51.404;6.304;2022-09-09T01:18:32;5.00;;;3.20;;
15812;SDS011;8007;51.404;6.304;2022-09-09T01:20:37;3.30;;;2.83;;
15812;SDS011;8007;51.404;6.304;2022-09-09T01:22:48;3.43;;;3.10;;
15812;SDS011;8007;51.404;6.304;2022-09-09T01:25:21;4.13;;;3.17;;
15812;SDS011;8007;51.404;6.304;2022-09-09T01:30:28;4.50;;;3.10;;
15812;SDS011;8007;51.404;6.304;2022-09-09T01:32:40;4.07;;;2.67;;
15812;SDS011;8007;51.404;6.304;2022-09-09T01:34:43;3.90;;;2.77;;
15812;SDS011;8007;51.404;6.304;2022-09-09T01:36:49;6.33;;;2.60;;
15812;SDS011;8007;51.404;6.304;2022-09-09T01:38:54;5.30;;;2.73;;
15812;SDS011;8007;51.404;6.304;2022-09-09T01:40:57;4.67;;;2.40;;
15812;SDS011;8007;51.404;6.304;2022-09-09T01:42:59;3.27;;;2.97;;
15812;SDS011;8007;51.404;6.304;2022-09-09T01:45:02;5.57;;;2.70;;
15812;SDS011;8007;51.404;6.304;2022-09-09T01:47:06;3.00;;;2.70;;
15812;SDS011;8007;51.404;6.304;2022-09-09T01:49:09;4.80;;;2.60;;
15812;SDS011;8007;51.404;6.304;2022-09-09T01:51:11;4.40;;;2.43;;
15812;SDS011;8007;51.404;6.304;2022-09-09T01:53:14;5.80;;;2.63;;
15812;SDS011;8007;51.404;6.304;2022-09-09T01:55:17;3.10;;;2.50;;
15812;SDS011;8007;51.404;6.304;2022-09-09T01:57:23;2.83;;;2.40;;
15812;SDS011;8007;51.404;6.304;2022-09-09T01:59:32;5.10;;;2.60;;
15812;SDS011;8007;51.404;6.304;2022-09-09T02:01:46;3.43;;;2.63;;
15812;SDS011;8007;51.404;6.304;2022-09-09T02:03:57;4.23;;;2.73;;
15812;SDS011;8007;51.404;6.304;2022-09-09T02:06:04;5.37;;;2.40;;
15812;SDS011;8007;51.404;6.304;2022-09-09T02:08:11;4.33;;;2.60;;
15812;SDS011;8007;51.404;6.304;2022-09-09T02:10:17;4.23;;;2.37;;
15812;SDS011;8007;51.404;6.304;2022-09-09T02:12:21;2.93;;;2.30;;
15812;SDS011;8007;51.404;6.304;2022-09-09T02:14:27;2.97;;;2.60;;
15812;SDS011;8007;51.404;6.304;2022-09-09T02:16:32;3.33;;;2.50;;
15812;SDS011;8007;51.404;6.304;2022-09-09T02:18:38;4.37;;;2.97;;
15812;SDS011;8007;51.404;6.304;2022-09-09T02:20:49;4.00;;;3.10;;
15812;SDS011;8007;51.404;6.304;2022-09-09T02:22:51;3.87;;;3.17;;
15812;SDS011;8007;51.404;6.304;2022-09-09T02:24:55;5.80;;;3.30;;
15812;SDS011;8007;51.404;6.304;2022-09-09T02:26:59;9.70;;;3.80;;
15812;SDS011;8007;51.404;6.304;2022-09-09T02:29:04;8.57;;;3.73;;
15812;SDS011;8007;51.404;6.304;2022-09-09T02:31:10;4.77;;;3.27;;
15812;SDS011;8007;51.404;6.304;2022-09-09T02:33:12;5.90;;;3.57;;
15812;SDS011;8007;51.404;6.304;2022-09-09T02:35:15;7.97;;;4.30;;
15812;SDS011;8007;51.404;6.304;2022-09-09T02:37:23;5.70;;;3.73;;
15812;SDS011;8007;51.404;6.304;2022-09-09T02:39:28;5.50;;;4.60;;
15812;SDS011;8007;51.404;6.304;2022-09-09T02:41:31;6.47;;;4.50;;
15812;SDS011;8007;51.404;6.304;2022-09-09T02:43:35;9.67;;;5.63;;
15812;SDS011;8007;51.404;6.304;2022-09-09T02:45:40;5.53;;;5.03;;
15812;SDS011;8007;51.404;6.304;2022-09-09T02:47:47;7.50;;;5.77;;
15812;SDS011;8007;51.404;6.304;2022-09-09T02:49:57;6.10;;;5.10;;
15812;SDS011;8007;51.404;6.304;2022-09-09T02:52:13;6.63;;;5.33;;
15812;SDS011;8007;51.404;6.304;2022-09-09T02:54:20;6.47;;;5.87;;
15812;SDS011;8007;51.404;6.304;2022-09-09T02:56:29;7.43;;;5.87;;
15812;SDS011;8007;51.404;6.304;2022-09-09T02:58:32;10.13;;;6.20;;
15812;SDS011;8007;51.404;6.304;2022-09-09T03:00:35;7.80;;;6.07;;
15812;SDS011;8007;51.404;6.304;2022-09-09T03:02:38;10.90;;;6.37;;
15812;SDS011;8007;51.404;6.304;2022-09-09T03:04:42;8.37;;;6.10;;
15812;SDS011;8007;51.404;6.304;2022-09-09T03:06:44;7.37;;;6.53;;
15812;SDS011;8007;51.404;6.304;2022-09-09T03:08:46;7.27;;;6.00;;
15812;SDS011;8007;51.404;6.304;2022-09-09T03:10:51;7.63;;;6.03;;
15812;SDS011;8007;51.404;6.304;2022-09-09T03:12:54;7.60;;;5.97;;
15812;SDS011;8007;51.404;6.304;2022-09-09T03:14:56;7.67;;;6.30;;
15812;SDS011;8007;51.404;6.304;2022-09-09T03:16:59;9.63;;;5.77;;
15812;SDS011;8007;51.404;6.304;2022-09-09T03:19:02;5.93;;;5.20;;
15812;SDS011;8007;51.404;6.304;2022-09-09T03:21:04;7.20;;;5.57;;
15812;SDS011;8007;51.404;6.304;2022-09-09T03:23:08;7.97;;;5.23;;
15812;SDS011;8007;51.404;6.304;2022-09-09T03:25:10;5.87;;;5.27;;
15812;SDS011;8007;51.404;6.304;2022-09-09T03:27:14;6.67;;;4.97;;
15812;SDS011;8007;51.404;6.304;2022-09-09T03:29:17;5.90;;;5.00;;
15812;SDS011;8007;51.404;6.304;2022-09-09T03:31:19;5.50;;;4.70;;
15812;SDS011;8007;51.404;6.304;2022-09-09T03:33:22;5.47;;;4.93;;
15812;SDS011;8007;51.404;6.304;2022-09-09T03:35:24;8.30;;;4.30;;
15812;SDS011;8007;51.404;6.304;2022-09-09T03:37:27;8.20;;;4.30;;
15812;SDS011;8007;51.404;6.304;2022-09-09T03:39:29;4.70;;;3.97;;
15812;SDS011;8007;51.404;6.304;2022-09-09T03:41:31;7.53;;;4.10;;
15812;SDS011;8007;51.404;6.304;2022-09-09T03:43:35;4.20;;;3.80;;
15812;SDS011;8007;51.404;6.304;2022-09-09T03:45:37;9.53;;;3.80;;
15812;SDS011;8007;51.404;6.304;2022-09-09T03:47:40;6.67;;;3.70;;
15812;SDS011;8007;51.404;6.304;2022-09-09T03:49:42;7.17;;;3.80;;
15812;SDS011;8007;51.404;6.304;2022-09-09T03:51:44;8.57;;;3.87;;
15812;SDS011;8007;51.404;6.304;2022-09-09T03:53:47;4.53;;;3.40;;
15812;SDS011;8007;51.404;6.304;2022-09-09T03:55:49;6.07;;;3.77;;
15812;SDS011;8007;51.404;6.304;2022-09-09T03:57:54;6.80;;;3.40;;
15812;SDS011;8007;51.404;6.304;2022-09-09T03:59:58;7.27;;;4.20;;
15812;SDS011;8007;51.404;6.304;2022-09-09T04:02:01;6.17;;;3.47;;
15812;SDS011;8007;51.404;6.304;2022-09-09T04:04:03;7.40;;;3.03;;
15812;SDS011;8007;51.404;6.304;2022-09-09T04:06:06;7.33;;;3.20;;
15812;SDS011;8007;51.404;6.304;2022-09-09T04:08:09;6.13;;;3.13;;
15812;SDS011;8007;51.404;6.304;2022-09-09T04:10:12;6.03;;;2.90;;
15812;SDS011;8007;51.404;6.304;2022-09-09T04:12:15;5.87;;;3.00;;
15812;SDS011;8007;51.404;6.304;2022-09-09T04:14:18;7.23;;;2.50;;
15812;SDS011;8007;51.404;6.304;2022-09-09T04:16:21;7.80;;;3.03;;
15812;SDS011;8007;51.404;6.304;2022-09-09T04:18:24;6.77;;;2.80;;
15812;SDS011;8007;51.404;6.304;2022-09-09T04:20:28;6.77;;;3.23;;
15812;SDS011;8007;51.404;6.304;2022-09-09T04:22:30;6.00;;;2.90;;
15812;SDS011;8007;51.404;6.304;2022-09-09T04:24:34;5.80;;;2.53;;
15812;SDS011;8007;51.404;6.304;2022-09-09T04:26:36;8.77;;;2.60;;
15812;SDS011;8007;51.404;6.304;2022-09-09T04:28:39;4.87;;;2.40;;
15812;SDS011;8007;51.404;6.304;2022-09-09T04:30:43;7.00;;;2.47;;
15812;SDS011;8007;51.404;6.304;2022-09-09T04:32:47;7.57;;;2.70;;
15812;SDS011;8007;51.404;6.304;2022-09-09T04:34:49;6.93;;;2.10;;
15812;SDS011;8007;51.404;6.304;2022-09-09T04:36:52;9.63;;;3.50;;
15812;SDS011;8007;51.404;6.304;2022-09-09T04:38:54;7.43;;;3.00;;
15812;SDS011;8007;51.404;6.304;2022-09-09T04:40:57;9.23;;;2.90;;
15812;SDS011;8007;51.404;6.304;2022-09-09T04:42:59;4.27;;;2.50;;
15812;SDS011;8007;51.404;6.304;2022-09-09T04:45:02;5.30;;;2.37;;
15812;SDS011;8007;51.404;6.304;2022-09-09T04:47:05;5.93;;;3.00;;
15812;SDS011;8007;51.404;6.304;2022-09-09T04:49:09;9.00;;;2.53;;
15812;SDS011;8007;51.404;6.304;2022-09-09T04:51:12;5.03;;;2.53;;
15812;SDS011;8007;51.404;6.304;2022-09-09T04:53:15;7.43;;;2.67;;
15812;SDS011;8007;51.404;6.304;2022-09-09T04:55:17;4.67;;;2.60;;
15812;SDS011;8007;51.404;6.304;2022-09-09T04:57:20;6.67;;;2.77;;
15812;SDS011;8007;51.404;6.304;2022-09-09T04:59:22;6.03;;;2.53;;
15812;SDS011;8007;51.404;6.304;2022-09-09T05:01:25;3.67;;;2.23;;
15812;SDS011;8007;51.404;6.304;2022-09-09T05:03:27;14.43;;;3.13;;
15812;SDS011;8007;51.404;6.304;2022-09-09T05:05:31;5.63;;;2.73;;
15812;SDS011;8007;51.404;6.304;2022-09-09T05:07:34;5.97;;;2.40;;
15812;SDS011;8007;51.404;6.304;2022-09-09T05:09:37;6.20;;;2.47;;
15812;SDS011;8007;51.404;6.304;2022-09-09T05:11:39;5.40;;;2.33;;
15812;SDS011;8007;51.404;6.304;2022-09-09T05:13:41;8.10;;;2.60;;
15812;SDS011;8007;51.404;6.304;2022-09-09T05:15:50;6.27;;;2.60;;
15812;SDS011;8007;51.404;6.304;2022-09-09T05:17:56;6.33;;;2.63;;
15812;SDS011;8007;51.404;6.304;2022-09-09T05:19:59;10.47;;;2.30;;
15812;SDS011;8007;51.404;6.304;2022-09-09T05:22:04;6.13;;;2.40;;
15812;SDS011;8007;51.404;6.304;2022-09-09T05:24:07;5.43;;;3.30;;
15812;SDS011;8007;51.404;6.304;2022-09-09T05:26:11;8.63;;;2.97;;
15812;SDS011;8007;51.404;6.304;2022-09-09T05:28:14;5.80;;;2.30;;
15812;SDS011;8007;51.404;6.304;2022-09-09T05:30:17;5.93;;;2.53;;
15812;SDS011;8007;51.404;6.304;2022-09-09T05:32:19;4.20;;;2.57;;
15812;SDS011;8007;51.404;6.304;2022-09-09T05:34:22;7.23;;;2.30;;
15812;SDS011;8007;51.404;6.304;2022-09-09T05:36:24;7.50;;;2.80;;
15812;SDS011;8007;51.404;6.304;2022-09-09T05:38:28;6.27;;;2.20;;
15812;SDS011;8007;51.404;6.304;2022-09-09T05:40:30;8.90;;;2.60;;
15812;SDS011;8007;51.404;6.304;2022-09-09T05:42:33;3.73;;;2.07;;
15812;SDS011;8007;51.404;6.304;2022-09-09T05:44:35;8.90;;;2.43;;
15812;SDS011;8007;51.404;6.304;2022-09-09T05:46:38;6.60;;;2.57;;
15812;SDS011;8007;51.404;6.304;2022-09-09T05:48:41;9.30;;;2.50;;
15812;SDS011;8007;51.404;6.304;2022-09-09T05:50:52;8.30;;;2.67;;
15812;SDS011;8007;51.404;6.304;2022-09-09T05:52:56;10.23;;;2.77;;
15812;SDS011;8007;51.404;6.304;2022-09-09T05:55:00;10.63;;;2.73;;
15812;SDS011;8007;51.404;6.304;2022-09-09T05:57:04;6.87;;;2.43;;
15812;SDS011;8007;51.404;6.304;2022-09-09T05:59:06;6.50;;;2.60;;
15812;SDS011;8007;51.404;6.304;2022-09-09T06:01:10;6.43;;;2.90;;
15812;SDS011;8007;51.404;6.304;2022-09-09T06:03:13;6.83;;;3.07;;
15812;SDS011;8007;51.404;6.304;2022-09-09T06:05:17;8.17;;;2.47;;
15812;SDS011;8007;51.404;6.304;2022-09-09T06:07:19;5.93;;;2.27;;
15812;SDS011;8007;51.404;6.304;2022-09-09T06:09:21;6.00;;;2.37;;
15812;SDS011;8007;51.404;6.304;2022-09-09T06:11:27;6.30;;;2.80;;
15812;SDS011;8007;51.404;6.304;2022-09-09T06:13:32;6.10;;;2.40;;
15812;SDS011;8007;51.404;6.304;2022-09-09T06:15:35;4.10;;;2.10;;
15812;SDS011;8007;51.404;6.304;2022-09-09T06:17:37;9.57;;;2.30;;
15812;SDS011;8007;51.404;6.304;2022-09-09T06:19:41;4.17;;;2.17;;
15812;SDS011;8007;51.404;6.304;2022-09-09T06:21:44;6.43;;;2.13;;
15812;SDS011;8007;51.404;6.304;2022-09-09T06:23:47;9.97;;;2.40;;
15812;SDS011;8007;51.404;6.304;2022-09-09T06:25:51;5.70;;;2.40;;
15812;SDS011;8007;51.404;6.304;2022-09-09T06:28:02;7.77;;;2.50;;
15812;SDS011;8007;51.404;6.304;2022-09-09T06:30:05;7.43;;;2.60;;
15812;SDS011;8007;51.404;6.304;2022-09-09T06:32:09;6.47;;;2.50;;
15812;SDS011;8007;51.404;6.304;2022-09-09T06:34:12;8.10;;;2.73;;
15812;SDS011;8007;51.404;6.304;2022-09-09T06:36:14;7.77;;;2.43;;
15812;SDS011;8007;51.404;6.304;2022-09-09T06:38:18;5.03;;;2.17;;
15812;SDS011;8007;51.404;6.304;2022-09-09T06:40:21;8.77;;;2.57;;
15812;SDS011;8007;51.404;6.304;2022-09-09T06:42:24;8.27;;;2.10;;
15812;SDS011;8007;51.404;6.304;2022-09-09T06:44:27;5.83;;;1.93;;
15812;SDS011;8007;51.404;6.304;2022-09-09T06:46:33;3.43;;;2.00;;
15812;SDS011;8007;51.404;6.304;2022-09-09T06:48:36;6.47;;;2.10;;
15812;SDS011;8007;51.404;6.304;2022-09-09T06:50:40;4.97;;;2.57;;
15812;SDS011;8007;51.404;6.304;2022-09-09T06:52:45;7.90;;;2.17;;
15812;SDS011;8007;51.404;6.304;2022-09-09T06:54:48;5.37;;;2.50;;
15812;SDS011;8007;51.404;6.304;2022-09-09T06:56:51;6.93;;;1.90;;
15812;SDS011;8007;51.404;6.304;2022-09-09T06:58:53;7.60;;;2.27;;
15812;SDS011;8007;51.404;6.304;2022-09-09T07:01:04;3.40;;;1.90;;
15812;SDS011;8007;51.404;6.304;2022-09-09T07:03:07;6.07;;;2.37;;
15812;SDS011;8007;51.404;6.304;2022-09-09T07:05:10;5.37;;;1.87;;
15812;SDS011;8007;51.404;6.304;2022-09-09T07:07:13;6.73;;;1.83;;
15812;SDS011;8007;51.404;6.304;2022-09-09T07:09:15;7.80;;;2.23;;
15812;SDS011;8007;51.404;6.304;2022-09-09T07:11:18;3.57;;;1.90;;
15812;SDS011;8007;51.404;6.304;2022-09-09T07:13:23;7.73;;;2.20;;
15812;SDS011;8007;51.404;6.304;2022-09-09T07:15:26;7.20;;;1.80;;
15812;SDS011;8007;51.404;6.304;2022-09-09T07:17:32;5.17;;;2.10;;
15812;SDS011;8007;51.404;6.304;2022-09-09T07:19:34;8.20;;;1.90;;
15812;SDS011;8007;51.404;6.304;2022-09-09T07:21:37;5.90;;;1.83;;
15812;SDS011;8007;51.404;6.304;2022-09-09T07:23:40;6.27;;;1.77;;
15812;SDS011;8007;51.404;6.304;2022-09-09T07:25:44;8.40;;;1.83;;
15812;SDS011;8007;51.404;6.304;2022-09-09T07:27:47;4.73;;;1.70;;
15812;SDS011;8007;51.404;6.304;2022-09-09T07:29:49;5.53;;;1.90;;
15812;SDS011;8007;51.404;6.304;2022-09-09T07:31:54;3.70;;;1.47;;
15812;SDS011;8007;51.404;6.304;2022-09-09T07:33:58;2.93;;;1.53;;
15812;SDS011;8007;51.404;6.304;2022-09-09T07:36:02;5.00;;;1.80;;
15812;SDS011;8007;51.404;6.304;2022-09-09T07:38:06;7.07;;;1.60;;
15812;SDS011;8007;51.404;6.304;2022-09-09T07:40:09;6.07;;;1.53;;
15812;SDS011;8007;51.404;6.304;2022-09-09T07:42:11;3.33;;;1.30;;
15812;SDS011;8007;51.404;6.304;2022-09-09T07:44:15;8.53;;;1.57;;
15812;SDS011;8007;51.404;6.304;2022-09-09T07:46:22;4.47;;;1.47;;
15812;SDS011;8007;51.404;6.304;2022-09-09T07:48:25;5.23;;;1.60;;
15812;SDS011;8007;51.404;6.304;2022-09-09T07:50:29;6.53;;;1.40;;
15812;SDS011;8007;51.404;6.304;2022-09-09T07:52:33;6.10;;;1.47;;
15812;SDS011;8007;51.404;6.304;2022-09-09T07:54:35;4.83;;;1.50;;
15812;SDS011;8007;51.404;6.304;2022-09-09T07:56:40;5.90;;;1.60;;
15812;SDS011;8007;51.404;6.304;2022-09-09T07:58:44;5.00;;;1.40;;
15812;SDS011;8007;51.404;6.304;2022-09-09T08:00:47;6.77;;;1.30;;
15812;SDS011;8007;51.404;6.304;2022-09-09T08:02:50;4.20;;;1.40;;
15812;SDS011;8007;51.404;6.304;2022-09-09T08:04:54;2.37;;;1.33;;
15812;SDS011;8007;51.404;6.304;2022-09-09T08:06:59;3.90;;;1.50;;
15812;SDS011;8007;51.404;6.304;2022-09-09T08:09:03;6.90;;;1.70;;
15812;SDS011;8007;51.404;6.304;2022-09-09T08:11:07;5.43;;;1.40;;
15812;SDS011;8007;51.404;6.304;2022-09-09T08:13:11;7.40;;;1.77;;
15812;SDS011;8007;51.404;6.304;2022-09-09T08:15:14;5.43;;;1.47;;
15812;SDS011;8007;51.404;6.304;2022-09-09T08:17:17;4.77;;;1.60;;
15812;SDS011;8007;51.404;6.304;2022-09-09T08:19:19;3.73;;;1.17;;
15812;SDS011;8007;51.404;6.304;2022-09-09T08:21:23;6.33;;;1.50;;
15812;SDS011;8007;51.404;6.304;2022-09-09T08:23:28;5.33;;;1.70;;
15812;SDS011;8007;51.404;6.304;2022-09-09T08:25:30;5.87;;;1.60;;
15812;SDS011;8007;51.404;6.304;2022-09-09T08:27:34;8.80;;;1.73;;
15812;SDS011;8007;51.404;6.304;2022-09-09T08:29:37;6.20;;;1.80;;
15812;SDS011;8007;51.404;6.304;2022-09-09T08:31:40;4.47;;;1.70;;
15812;SDS011;8007;51.404;6.304;2022-09-09T08:33:43;6.57;;;1.80;;
15812;SDS011;8007;51.404;6.304;2022-09-09T08:35:49;4.90;;;1.60;;
15812;SDS011;8007;51.404;6.304;2022-09-09T08:37:54;4.57;;;1.40;;
15812;SDS011;8007;51.404;6.304;2022-09-09T08:39:58;4.60;;;1.63;;
15812;SDS011;8007;51.404;6.304;2022-09-09T08:44:31;6.07;;;1.50;;
15812;SDS011;8007;51.404;6.304;2022-09-09T08:46:45;4.63;;;1.70;;
15812;SDS011;8007;51.404;6.304;2022-09-09T08:48:52;4.37;;;1.90;;
15812;SDS011;8007;51.404;6.304;2022-09-09T08:50:57;6.43;;;1.63;;
15812;SDS011;8007;51.404;6.304;2022-09-09T08:53:02;5.50;;;1.50;;
15812;SDS011;8007;51.404;6.304;2022-09-09T08:55:15;4.10;;;1.60;;
15812;SDS011;8007;51.404;6.304;2022-09-09T08:57:25;5.53;;;1.50;;
15812;SDS011;8007;51.404;6.304;2022-09-09T08:59:30;7.47;;;1.43;;
15812;SDS011;8007;51.404;6.304;2022-09-09T09:01:38;4.17;;;1.40;;
15812;SDS011;8007;51.404;6.304;2022-09-09T09:03:51;4.27;;;1.20;;
15812;SDS011;8007;51.404;6.304;2022-09-09T09:05:59;4.97;;;1.43;;
15812;SDS011;8007;51.404;6.304;2022-09-09T09:08:08;4.07;;;1.20;;
15812;SDS011;8007;51.404;6.304;2022-09-09T09:10:18;8.70;;;1.57;;
15812;SDS011;8007;51.404;6.304;2022-09-09T09:12:30;3.50;;;1.00;;
15812;SDS011;8007;51.404;6.304;2022-09-09T09:14:39;5.27;;;1.70;;
15812;SDS011;8007;51.404;6.304;2022-09-09T09:16:42;5.33;;;1.43;;
15812;SDS011;8007;51.404;6.304;2022-09-09T09:18:51;4.50;;;1.33;;
15812;SDS011;8007;51.404;6.304;2022-09-09T09:20:57;4.07;;;1.27;;
15812;SDS011;8007;51.404;6.304;2022-09-09T09:23:04;3.77;;;1.30;;
15812;SDS011;8007;51.404;6.304;2022-09-09T09:25:09;2.23;;;1.10;;
15812;SDS011;8007;51.404;6.304;2022-09-09T09:27:21;8.80;;;1.50;;
15812;SDS011;8007;51.404;6.304;2022-09-09T09:29:28;6.40;;;1.20;;
15812;SDS011;8007;51.404;6.304;2022-09-09T09:31:30;5.43;;;1.23;;
15812;SDS011;8007;51.404;6.304;2022-09-09T09:33:34;3.17;;;1.00;;
15812;SDS011;8007;51.404;6.304;2022-09-09T09:35:41;4.83;;;1.23;;
15812;SDS011;8007;51.404;6.304;2022-09-09T09:37:43;4.23;;;1.63;;
15812;SDS011;8007;51.404;6.304;2022-09-09T09:39:46;4.83;;;1.63;;
15812;SDS011;8007;51.404;6.304;2022-09-09T09:41:49;5.23;;;1.30;;
15812;SDS011;8007;51.404;6.304;2022-09-09T09:43:54;4.20;;;1.10;;
15812;SDS011;8007;51.404;6.304;2022-09-09T09:45:56;5.23;;;1.40;;
15812;SDS011;8007;51.404;6.304;2022-09-09T09:48:00;2.83;;;1.43;;
15812;SDS011;8007;51.404;6.304;2022-09-09T09:50:04;4.20;;;1.33;;
15812;SDS011;8007;51.404;6.304;2022-09-09T09:52:18;7.93;;;1.63;;
15812;SDS011;8007;51.404;6.304;2022-09-09T09:54:26;4.73;;;1.07;;
15812;SDS011;8007;51.404;6.304;2022-09-09T09:56:29;2.70;;;1.20;;
15812;SDS011;8007;51.404;6.304;2022-09-09T09:58:33;3.90;;;1.30;;
15812;SDS011;8007;51.404;6.304;2022-09-09T10:00:51;2.53;;;1.10;;
15812;SDS011;8007;51.404;6.304;2022-09-09T10:02:54;2.63;;;1.07;;
15812;SDS011;8007;51.404;6.304;2022-09-09T10:05:00;3.53;;;1.13;;
15812;SDS011;8007;51.404;6.304;2022-09-09T10:07:09;4.73;;;1.23;;
15812;SDS011;8007;51.404;6.304;2022-09-09T10:09:20;4.27;;;1.23;;
15812;SDS011;8007;51.404;6.304;2022-09-09T10:11:37;3.83;;;1.13;;
15812;SDS011;8007;51.404;6.304;2022-09-09T10:13:47;5.17;;;1.20;;
15812;SDS011;8007;51.404;6.304;2022-09-09T10:15:58;2.80;;;1.10;;
15812;SDS011;8007;51.404;6.304;2022-09-09T10:18:11;3.20;;;0.90;;
15812;SDS011;8007;51.404;6.304;2022-09-09T10:20:32;2.03;;;1.00;;
15812;SDS011;8007;51.404;6.304;2022-09-09T10:22:39;4.87;;;1.40;;
15812;SDS011;8007;51.404;6.304;2022-09-09T10:27:19;5.17;;;1.30;;
15812;SDS011;8007;51.404;6.304;2022-09-09T10:29:30;6.37;;;1.40;;
15812;SDS011;8007;51.404;6.304;2022-09-09T10:31:51;4.57;;;1.10;;
15812;SDS011;8007;51.404;6.304;2022-09-09T10:34:02;5.23;;;1.20;;
15812;SDS011;8007;51.404;6.304;2022-09-09T10:36:09;3.63;;;1.17;;
15812;SDS011;8007;51.404;6.304;2022-09-09T10:38:16;7.50;;;1.33;;
15812;SDS011;8007;51.404;6.304;2022-09-09T10:40:21;3.57;;;1.20;;
15812;SDS011;8007;51.404;6.304;2022-09-09T10:42:30;7.97;;;1.77;;
15812;SDS011;8007;51.404;6.304;2022-09-09T10:44:41;4.90;;;1.30;;
15812;SDS011;8007;51.404;6.304;2022-09-09T10:46:54;4.53;;;1.13;;
15812;SDS011;8007;51.404;6.304;2022-09-09T10:49:06;4.43;;;1.47;;
15812;SDS011;8007;51.404;6.304;2022-09-09T10:51:22;3.30;;;1.20;;
15812;SDS011;8007;51.404;6.304;2022-09-09T10:53:33;5.57;;;1.30;;
15812;SDS011;8007;51.404;6.304;2022-09-09T10:55:39;5.20;;;1.23;;
15812;SDS011;8007;51.404;6.304;2022-09-09T10:57:44;5.40;;;1.20;;
15812;SDS011;8007;51.404;6.304;2022-09-09T10:59:50;4.23;;;1.10;;
15812;SDS011;8007;51.404;6.304;2022-09-09T11:01:59;4.50;;;1.40;;
15812;SDS011;8007;51.404;6.304;2022-09-09T11:04:05;4.67;;;1.30;;
15812;SDS011;8007;51.404;6.304;2022-09-09T11:06:14;3.67;;;1.57;;
15812;SDS011;8007;51.404;6.304;2022-09-09T11:08:18;5.07;;;1.20;;
15812;SDS011;8007;51.404;6.304;2022-09-09T11:10:23;2.40;;;1.17;;
15812;SDS011;8007;51.404;6.304;2022-09-09T11:12:28;3.33;;;1.30;;
15812;SDS011;8007;51.404;6.304;2022-09-09T11:14:32;2.73;;;1.43;;
15812;SDS011;8007;51.404;6.304;2022-09-09T11:16:39;5.20;;;1.33;;
15812;SDS011;8007;51.404;6.304;2022-09-09T11:18:45;2.37;;;1.07;;
15812;SDS011;8007;51.404;6.304;2022-09-09T11:20:50;3.93;;;1.50;;
15812;SDS011;8007;51.404;6.304;2022-09-09T11:22:57;3.17;;;1.20;;
15812;SDS011;8007;51.404;6.304;2022-09-09T11:25:04;3.77;;;0.93;;
15812;SDS011;8007;51.404;6.304;2022-09-09T11:27:10;4.00;;;0.97;;
15812;SDS011;8007;51.404;6.304;2022-09-09T11:31:53;1.97;;;1.00;;
15812;SDS011;8007;51.404;6.304;2022-09-09T11:36:35;1.33;;;0.70;;
15812;SDS011;8007;51.404;6.304;2022-09-09T11:38:45;3.30;;;0.90;;
15812;SDS011;8007;51.404;6.304;2022-09-09T11:40:54;5.43;;;1.00;;
15812;SDS011;8007;51.404;6.304;2022-09-09T11:43:03;4.07;;;0.93;;
15812;SDS011;8007;51.404;6.304;2022-09-09T11:45:19;6.23;;;1.07;;
15812;SDS011;8007;51.404;6.304;2022-09-09T11:47:28;5.53;;;1.33;;
15812;SDS011;8007;51.404;6.304;2022-09-09T11:49:41;4.03;;;1.20;;
15812;SDS011;8007;51.404;6.304;2022-09-09T11:51:45;4.17;;;1.50;;
15812;SDS011;8007;51.404;6.304;2022-09-09T11:53:48;4.13;;;1.23;;
15812;SDS011;8007;51.404;6.304;2022-09-09T11:56:06;2.33;;;1.00;;
15812;SDS011;8007;51.404;6.304;2022-09-09T11:58:15;4.60;;;1.07;;
15812;SDS011;8007;51.404;6.304;2022-09-09T12:00:30;1.53;;;1.40;;
15812;SDS011;8007;51.404;6.304;2022-09-09T12:02:35;3.93;;;1.43;;
15812;SDS011;8007;51.404;6.304;2022-09-09T12:04:38;2.87;;;1.50;;
15812;SDS011;8007;51.404;6.304;2022-09-09T12:06:43;4.30;;;1.90;;
15812;SDS011;8007;51.404;6.304;2022-09-09T12:08:48;8.73;;;2.10;;
15812;SDS011;8007;51.404;6.304;2022-09-09T12:10:53;8.37;;;1.90;;
15812;SDS011;8007;51.404;6.304;2022-09-09T12:13:07;3.00;;;1.70;;
15812;SDS011;8007;51.404;6.304;2022-09-09T12:15:21;3.30;;;1.60;;
15812;SDS011;8007;51.404;6.304;2022-09-09T12:17:28;4.87;;;2.00;;
15812;SDS011;8007;51.404;6.304;2022-09-09T12:19:31;4.30;;;1.60;;
15812;SDS011;8007;51.404;6.304;2022-09-09T12:21:36;5.77;;;1.93;;
15812;SDS011;8007;51.404;6.304;2022-09-09T12:23:44;4.43;;;2.10;;
15812;SDS011;8007;51.404;6.304;2022-09-09T12:25:58;4.70;;;1.87;;
15812;SDS011;8007;51.404;6.304;2022-09-09T12:28:25;4.40;;;2.07;;
15812;SDS011;8007;51.404;6.304;2022-09-09T12:30:35;3.17;;;1.80;;
15812;SDS011;8007;51.404;6.304;2022-09-09T12:32:44;4.27;;;1.70;;
15812;SDS011;8007;51.404;6.304;2022-09-09T12:34:47;2.50;;;1.60;;
15812;SDS011;8007;51.404;6.304;2022-09-09T12:36:53;3.37;;;1.50;;
15812;SDS011;8007;51.404;6.304;2022-09-09T12:39:09;3.33;;;1.50;;
15812;SDS011;8007;51.404;6.304;2022-09-09T12:41:22;3.17;;;1.87;;
15812;SDS011;8007;51.404;6.304;2022-09-09T12:43:30;4.33;;;1.70;;
15812;SDS011;8007;51.404;6.304;2022-09-09T12:45:40;3.27;;;1.87;;
15812;SDS011;8007;51.404;6.304;2022-09-09T12:47:44;4.57;;;2.07;;
15812;SDS011;8007;51.404;6.304;2022-09-09T12:49:48;3.97;;;1.83;;
15812;SDS011;8007;51.404;6.304;2022-09-09T12:51:54;4.03;;;1.80;;
15812;SDS011;8007;51.404;6.304;2022-09-09T12:53:58;4.77;;;1.90;;
15812;SDS011;8007;51.404;6.304;2022-09-09T12:56:02;2.43;;;2.07;;
15812;SDS011;8007;51.404;6.304;2022-09-09T12:58:11;4.63;;;2.10;;
15812;SDS011;8007;51.404;6.304;2022-09-09T13:00:16;4.93;;;2.13;;
15812;SDS011;8007;51.404;6.304;2022-09-09T13:02:23;5.77;;;1.83;;